sensor_id;sensor_type;location;lat;lon;timestamp;pressure;altitude;pressure_sealevel;temperature;humidity
19594;BME280;9944;48.240;16.478;2023-03-23T00:02:54;99383.50;;;9.85;60.38
19594;BME280;9944;48.240;16.478;2023-03-23T00:06:56;99379.16;;;9.80;60.25
19594;BME280;9944;48.240;16.478;2023-03-23T00:10:58;99384.47;;;9.77;60.34
19594;BME280;9944;48.240;16.478;2023-03-23T00:15:02;99380.97;;;9.72;60.23
19594;BME280;9944;48.240;16.478;2023-03-23T00:19:08;99381.03;;;9.65;60.05
19594;BME280;9944;48.240;16.478;2023-03-23T00:23:10;99375.84;;;9.56;59.84
19594;BME280;9944;48.240;16.478;2023-03-23T00:27:12;99379.38;;;9.49;60.03
19594;BME280;9944;48.240;16.478;2023-03-23T00:31:16;99386.41;;;9.44;60.08
19594;BME280;9944;48.240;16.478;2023-03-23T00:35:19;99376.81;;;9.35;60.03
19594;BME280;9944;48.240;16.478;2023-03-23T00:39:21;99371.59;;;9.27;59.95
19594;BME280;9944;48.240;16.478;2023-03-23T00:43:24;99368.97;;;9.23;60.61
19594;BME280;9944;48.240;16.478;2023-03-23T00:47:29;99375.16;;;9.16;60.33
19594;BME280;9944;48.240;16.478;2023-03-23T00:51:33;99384.84;;;9.15;60.53
19594;BME280;9944;48.240;16.478;2023-03-23T00:55:35;99375.22;;;9.08;60.47
19594;BME280;9944;48.240;16.478;2023-03-23T00:59:38;99383.13;;;9.06;60.37
19594;BME280;9944;48.240;16.478;2023-03-23T01:03:41;99376.09;;;9.04;60.52
19594;BME280;9944;48.240;16.478;2023-03-23T01:07:46;99370.88;;;9.01;60.50
19594;BME280;9944;48.240;16.478;2023-03-23T01:11:50;99362.06;;;8.99;60.75
19594;BME280;9944;48.240;16.478;2023-03-23T01:15:52;99366.47;;;8.93;61.09
19594;BME280;9944;48.240;16.478;2023-03-23T01:19:54;99364.75;;;8.88;61.88
19594;BME280;9944;48.240;16.478;2023-03-23T01:23:58;99358.63;;;8.84;61.96
19594;BME280;9944;48.240;16.478;2023-03-23T01:28:00;99362.16;;;8.80;61.88
19594;BME280;9944;48.240;16.478;2023-03-23T01:32:02;99368.34;;;8.73;61.70
19594;BME280;9944;48.240;16.478;2023-03-23T01:36:07;99364.84;;;8.68;61.86
19594;BME280;9944;48.240;16.478;2023-03-23T01:40:12;99369.25;;;8.63;61.83
19594;BME280;9944;48.240;16.478;2023-03-23T01:48:55;99355.22;;;8.48;62.25
19594;BME280;9944;48.240;16.478;2023-03-23T01:52:59;99347.38;;;8.45;62.93
19594;BME280;9944;48.240;16.478;2023-03-23T01:57:07;99356.13;;;8.46;62.86
19594;BME280;9944;48.240;16.478;2023-03-23T02:01:13;99351.75;;;8.39;63.17
19594;BME280;9944;48.240;16.478;2023-03-23T02:05:23;99356.16;;;8.33;63.73
19594;BME280;9944;48.240;16.478;2023-03-23T02:09:27;99357.00;;;8.28;64.25
19594;BME280;9944;48.240;16.478;2023-03-23T02:13:30;99363.13;;;8.24;64.76
19594;BME280;9944;48.240;16.478;2023-03-23T02:17:37;99367.53;;;8.23;64.79
19594;BME280;9944;48.240;16.478;2023-03-23T02:26:38;99372.78;;;8.15;64.28
19594;BME280;9944;48.240;16.478;2023-03-23T02:30:51;99363.16;;;8.08;64.30
19594;BME280;9944;48.240;16.478;2023-03-23T02:35:06;99362.28;;;8.03;64.21
19594;BME280;9944;48.240;16.478;2023-03-23T02:39:12;99367.56;;;8.00;64.43
19594;BME280;9944;48.240;16.478;2023-03-23T02:43:18;99367.56;;;7.97;64.90
19594;BME280;9944;48.240;16.478;2023-03-23T02:47:24;99358.78;;;7.93;64.95
19594;BME280;9944;48.240;16.478;2023-03-23T02:51:29;99369.28;;;7.89;65.14
19594;BME280;9944;48.240;16.478;2023-03-23T02:55:32;99365.78;;;7.87;65.46
19594;BME280;9944;48.240;16.478;2023-03-23T02:59:39;99382.44;;;7.86;65.16
19594;BME280;9944;48.240;16.478;2023-03-23T03:03:41;99388.56;;;7.72;65.10
19594;BME280;9944;48.240;16.478;2023-03-23T03:08:06;99392.94;;;7.66;65.23
19594;BME280;9944;48.240;16.478;2023-03-23T03:12:14;99378.03;;;7.63;65.14
19594;BME280;9944;48.240;16.478;2023-03-23T03:16:24;99388.56;;;7.60;65.18
19594;BME280;9944;48.240;16.478;2023-03-23T03:20:28;99386.78;;;7.56;65.10
19594;BME280;9944;48.240;16.478;2023-03-23T03:24:34;99390.28;;;7.52;65.35
19594;BME280;9944;48.240;16.478;2023-03-23T03:28:38;99381.50;;;7.47;65.51
19594;BME280;9944;48.240;16.478;2023-03-23T03:32:44;99375.38;;;7.45;65.94
19594;BME280;9944;48.240;16.478;2023-03-23T03:36:53;99373.63;;;7.45;65.68
19594;BME280;9944;48.240;16.478;2023-03-23T03:40:58;99377.13;;;7.41;65.44
19594;BME280;9944;48.240;16.478;2023-03-23T03:45:00;99372.72;;;7.35;65.36
19594;BME280;9944;48.240;16.478;2023-03-23T03:49:04;99384.09;;;7.33;65.16
19594;BME280;9944;48.240;16.478;2023-03-23T03:53:08;99394.59;;;7.28;65.23
19594;BME280;9944;48.240;16.478;2023-03-23T03:57:13;99392.81;;;7.22;65.24
19594;BME280;9944;48.240;16.478;2023-03-23T04:01:38;99391.94;;;7.16;65.18
19594;BME280;9944;48.240;16.478;2023-03-23T04:05:41;99387.53;;;7.09;65.12
19594;BME280;9944;48.240;16.478;2023-03-23T04:09:46;99393.63;;;7.01;65.53
19594;BME280;9944;48.240;16.478;2023-03-23T04:13:53;99396.22;;;6.98;65.73
19594;BME280;9944;48.240;16.478;2023-03-23T04:17:57;99398.84;;;6.95;65.87
19594;BME280;9944;48.240;16.478;2023-03-23T04:22:01;99393.56;;;6.92;65.87
19594;BME280;9944;48.240;16.478;2023-03-23T04:26:08;99394.47;;;6.93;66.22
19594;BME280;9944;48.240;16.478;2023-03-23T04:30:21;99388.34;;;6.89;66.12
19594;BME280;9944;48.240;16.478;2023-03-23T04:34:35;99389.19;;;6.86;66.12
19594;BME280;9944;48.240;16.478;2023-03-23T04:38:37;99390.06;;;6.84;66.17
19594;BME280;9944;48.240;16.478;2023-03-23T04:42:48;99384.78;;;6.81;66.17
19594;BME280;9944;48.240;16.478;2023-03-23T04:47:07;99392.66;;;6.79;66.45
19594;BME280;9944;48.240;16.478;2023-03-23T04:51:16;99393.53;;;6.77;66.19
19594;BME280;9944;48.240;16.478;2023-03-23T04:55:22;99398.75;;;6.74;66.22
19594;BME280;9944;48.240;16.478;2023-03-23T04:59:30;99394.34;;;6.71;66.91
19594;BME280;9944;48.240;16.478;2023-03-23T05:03:51;99400.50;;;6.72;67.07
19594;BME280;9944;48.240;16.478;2023-03-23T05:07:55;99391.72;;;6.73;67.10
19594;BME280;9944;48.240;16.478;2023-03-23T05:12:03;99408.34;;;6.69;67.39
19594;BME280;9944;48.240;16.478;2023-03-23T05:16:08;99413.56;;;6.65;67.61
19594;BME280;9944;48.240;16.478;2023-03-23T05:20:16;99422.31;;;6.63;67.70
19594;BME280;9944;48.240;16.478;2023-03-23T05:24:23;99423.16;;;6.62;68.07
19594;BME280;9944;48.240;16.478;2023-03-23T05:28:26;99430.16;;;6.63;68.23
19594;BME280;9944;48.240;16.478;2023-03-23T05:32:49;99437.16;;;6.65;68.15
19594;BME280;9944;48.240;16.478;2023-03-23T05:37:03;99441.56;;;6.68;68.23
19594;BME280;9944;48.240;16.478;2023-03-23T05:41:17;99442.47;;;6.72;68.56
19594;BME280;9944;48.240;16.478;2023-03-23T05:45:20;99437.22;;;6.75;68.48
19594;BME280;9944;48.240;16.478;2023-03-23T05:49:25;99444.25;;;6.79;68.65
19594;BME280;9944;48.240;16.478;2023-03-23T05:53:30;99456.50;;;6.84;68.90
19594;BME280;9944;48.240;16.478;2023-03-23T05:57:32;99451.31;;;6.89;69.07
19594;BME280;9944;48.240;16.478;2023-03-23T06:01:51;99457.47;;;6.96;69.62
19594;BME280;9944;48.240;16.478;2023-03-23T06:05:56;99461.88;;;7.04;69.69
19594;BME280;9944;48.240;16.478;2023-03-23T06:10:09;99461.91;;;7.14;69.79
19594;BME280;9944;48.240;16.478;2023-03-23T06:14:13;99456.69;;;7.23;69.54
19594;BME280;9944;48.240;16.478;2023-03-23T06:18:17;99458.47;;;7.30;69.67
19594;BME280;9944;48.240;16.478;2023-03-23T06:22:40;99448.88;;;7.38;69.82
19594;BME280;9944;48.240;16.478;2023-03-23T06:26:47;99452.41;;;7.43;69.75
19594;BME280;9944;48.240;16.478;2023-03-23T06:30:53;99461.19;;;7.52;69.47
19594;BME280;9944;48.240;16.478;2023-03-23T06:34:55;99461.22;;;7.61;69.59
19594;BME280;9944;48.240;16.478;2023-03-23T06:39:19;99462.13;;;7.72;69.31
19594;BME280;9944;48.240;16.478;2023-03-23T06:43:31;99463.03;;;7.85;69.06
19594;BME280;9944;48.240;16.478;2023-03-23T06:47:48;99465.66;;;7.97;69.01
19594;BME280;9944;48.240;16.478;2023-03-23T06:51:50;99458.69;;;8.10;68.79
19594;BME280;9944;48.240;16.478;2023-03-23T06:55:52;99459.56;;;8.25;68.56
19594;BME280;9944;48.240;16.478;2023-03-23T06:59:56;99468.38;;;8.33;68.17
19594;BME280;9944;48.240;16.478;2023-03-23T07:04:00;99470.13;;;8.42;68.02
19594;BME280;9944;48.240;16.478;2023-03-23T07:08:12;99467.47;;;8.52;67.67
19594;BME280;9944;48.240;16.478;2023-03-23T07:12:21;99471.00;;;8.61;67.34
19594;BME280;9944;48.240;16.478;2023-03-23T07:16:26;99468.34;;;8.68;67.18
19594;BME280;9944;48.240;16.478;2023-03-23T07:20:29;99485.88;;;8.77;66.93
19594;BME280;9944;48.240;16.478;2023-03-23T07:24:31;99483.22;;;8.86;66.44
19594;BME280;9944;48.240;16.478;2023-03-23T07:28:53;99477.94;;;8.92;66.28
19594;BME280;9944;48.240;16.478;2023-03-23T07:33:05;99480.53;;;9.02;66.45
19594;BME280;9944;48.240;16.478;2023-03-23T07:37:08;99481.41;;;9.13;66.16
19594;BME280;9944;48.240;16.478;2023-03-23T07:41:11;99477.81;;;9.26;66.03
19594;BME280;9944;48.240;16.478;2023-03-23T07:45:16;99489.22;;;9.38;65.81
19594;BME280;9944;48.240;16.478;2023-03-23T07:49:20;99477.75;;;9.48;65.75
19594;BME280;9944;48.240;16.478;2023-03-23T07:53:34;99468.91;;;9.61;65.65
19594;BME280;9944;48.240;16.478;2023-03-23T07:58:05;99466.22;;;9.75;64.95
19594;BME280;9944;48.240;16.478;2023-03-23T08:02:08;99465.22;;;9.87;64.90
19594;BME280;9944;48.240;16.478;2023-03-23T08:06:18;99466.06;;;10.00;64.59
19594;BME280;9944;48.240;16.478;2023-03-23T08:10:31;99472.13;;;10.11;64.31
19594;BME280;9944;48.240;16.478;2023-03-23T08:14:54;99480.84;;;10.26;64.26
19594;BME280;9944;48.240;16.478;2023-03-23T08:19:24;99464.94;;;10.33;63.98
19594;BME280;9944;48.240;16.478;2023-03-23T08:24:03;99464.91;;;10.39;63.54
19594;BME280;9944;48.240;16.478;2023-03-23T08:28:26;99472.78;;;10.41;63.74
19594;BME280;9944;48.240;16.478;2023-03-23T08:32:46;99463.97;;;10.45;63.42
19594;BME280;9944;48.240;16.478;2023-03-23T08:37:11;99470.97;;;10.49;63.41
19594;BME280;9944;48.240;16.478;2023-03-23T08:41:20;99481.50;;;10.52;63.45
19594;BME280;9944;48.240;16.478;2023-03-23T08:45:40;99480.59;;;10.55;63.50
19594;BME280;9944;48.240;16.478;2023-03-23T08:50:05;99478.78;;;10.58;63.13
19594;BME280;9944;48.240;16.478;2023-03-23T08:54:42;99487.53;;;10.65;63.31
19594;BME280;9944;48.240;16.478;2023-03-23T08:59:07;99486.53;;;10.80;62.90
19594;BME280;9944;48.240;16.478;2023-03-23T09:03:15;99487.25;;;10.93;62.53
19594;BME280;9944;48.240;16.478;2023-03-23T09:07:49;99473.91;;;11.07;62.79
19594;BME280;9944;48.240;16.478;2023-03-23T09:11:52;99477.22;;;11.24;62.34
19594;BME280;9944;48.240;16.478;2023-03-23T09:15:56;99474.44;;;11.41;61.67
19594;BME280;9944;48.240;16.478;2023-03-23T09:19:58;99476.91;;;11.53;61.24
19594;BME280;9944;48.240;16.478;2023-03-23T09:24:00;99474.06;;;11.69;60.97
19594;BME280;9944;48.240;16.478;2023-03-23T09:28:03;99477.31;;;11.89;61.05
19594;BME280;9944;48.240;16.478;2023-03-23T09:32:06;99480.56;;;12.10;60.53
19594;BME280;9944;48.240;16.478;2023-03-23T09:36:08;99492.88;;;12.11;60.10
19594;BME280;9944;48.240;16.478;2023-03-23T09:40:15;99481.34;;;12.15;60.11
19594;BME280;9944;48.240;16.478;2023-03-23T09:44:24;99481.91;;;12.36;60.22
19594;BME280;9944;48.240;16.478;2023-03-23T09:48:43;99481.56;;;12.56;60.06
19594;BME280;9944;48.240;16.478;2023-03-23T09:52:52;99480.34;;;12.78;58.97
19594;BME280;9944;48.240;16.478;2023-03-23T09:56:58;99470.31;;;12.94;58.77
19594;BME280;9944;48.240;16.478;2023-03-23T10:01:06;99460.34;;;13.09;58.52
19594;BME280;9944;48.240;16.478;2023-03-23T10:05:23;99459.97;;;13.27;57.74
19594;BME280;9944;48.240;16.478;2023-03-23T10:09:28;99455.34;;;13.38;56.92
19594;BME280;9944;48.240;16.478;2023-03-23T10:13:53;99450.47;;;13.59;56.98
19594;BME280;9944;48.240;16.478;2023-03-23T10:18:01;99448.41;;;13.73;56.57
19594;BME280;9944;48.240;16.478;2023-03-23T10:22:09;99431.16;;;13.93;56.87
19594;BME280;9944;48.240;16.478;2023-03-23T10:26:21;99439.53;;;14.13;56.57
19594;BME280;9944;48.240;16.478;2023-03-23T10:30:27;99433.69;;;14.35;55.44
19594;BME280;9944;48.240;16.478;2023-03-23T10:34:32;99435.19;;;14.45;55.37
19594;BME280;9944;48.240;16.478;2023-03-23T10:38:40;99426.00;;;14.59;55.05
19594;BME280;9944;48.240;16.478;2023-03-23T10:42:44;99409.59;;;14.77;55.11
19594;BME280;9944;48.240;16.478;2023-03-23T10:46:55;99407.53;;;14.88;53.55
19594;BME280;9944;48.240;16.478;2023-03-23T10:51:00;99399.25;;;14.99;53.81
19594;BME280;9944;48.240;16.478;2023-03-23T10:55:07;99399.69;;;15.15;53.66
19594;BME280;9944;48.240;16.478;2023-03-23T10:59:12;99401.88;;;15.30;52.74
19594;BME280;9944;48.240;16.478;2023-03-23T11:03:24;99398.84;;;15.43;52.49
19594;BME280;9944;48.240;16.478;2023-03-23T11:07:32;99392.91;;;15.64;52.14
19594;BME280;9944;48.240;16.478;2023-03-23T11:11:39;99387.00;;;15.83;52.07
19594;BME280;9944;48.240;16.478;2023-03-23T11:15:44;99394.13;;;16.11;51.17
19594;BME280;9944;48.240;16.478;2023-03-23T11:19:47;99390.34;;;16.18;50.82
19594;BME280;9944;48.240;16.478;2023-03-23T11:23:51;99382.06;;;16.25;50.51
19594;BME280;9944;48.240;16.478;2023-03-23T11:27:55;99378.31;;;16.31;50.30
19594;BME280;9944;48.240;16.478;2023-03-23T11:32:03;99372.78;;;16.37;50.18
19594;BME280;9944;48.240;16.478;2023-03-23T11:36:08;99369.75;;;16.48;49.95
19594;BME280;9944;48.240;16.478;2023-03-23T11:40:16;99369.97;;;16.67;48.08
19594;BME280;9944;48.240;16.478;2023-03-23T11:44:21;99357.00;;;16.81;49.17
19594;BME280;9944;48.240;16.478;2023-03-23T11:48:29;99358.81;;;17.06;48.81
19594;BME280;9944;48.240;16.478;2023-03-23T11:52:41;99346.63;;;17.23;47.79
19594;BME280;9944;48.240;16.478;2023-03-23T11:56:45;99344.44;;;17.34;47.17
19594;BME280;9944;48.240;16.478;2023-03-23T12:00:51;99339.59;;;17.44;47.10
19594;BME280;9944;48.240;16.478;2023-03-23T12:05:02;99336.47;;;17.54;46.79
19594;BME280;9944;48.240;16.478;2023-03-23T12:09:22;99325.69;;;17.57;46.21
19594;BME280;9944;48.240;16.478;2023-03-23T12:13:55;99323.03;;;17.57;45.86
19594;BME280;9944;48.240;16.478;2023-03-23T12:18:09;99317.63;;;17.59;46.57
19594;BME280;9944;48.240;16.478;2023-03-23T12:22:27;99318.38;;;17.63;46.40
19594;BME280;9944;48.240;16.478;2023-03-23T12:26:36;99314.63;;;17.67;46.41
19594;BME280;9944;48.240;16.478;2023-03-23T12:30:44;99309.06;;;17.73;46.81
19594;BME280;9944;48.240;16.478;2023-03-23T12:34:52;99306.69;;;17.87;46.49
19594;BME280;9944;48.240;16.478;2023-03-23T12:39:29;99301.66;;;18.02;46.12
19594;BME280;9944;48.240;16.478;2023-03-23T12:43:38;99291.38;;;18.13;46.10
19594;BME280;9944;48.240;16.478;2023-03-23T12:47:48;99299.94;;;18.21;46.06
19594;BME280;9944;48.240;16.478;2023-03-23T12:51:57;99281.91;;;18.26;45.68
19594;BME280;9944;48.240;16.478;2023-03-23T12:56:10;99288.91;;;18.29;45.29
19594;BME280;9944;48.240;16.478;2023-03-23T13:00:18;99285.63;;;18.22;45.03
19594;BME280;9944;48.240;16.478;2023-03-23T13:04:26;99289.44;;;18.17;45.26
19594;BME280;9944;48.240;16.478;2023-03-23T13:08:36;99284.03;;;18.18;45.39
19594;BME280;9944;48.240;16.478;2023-03-23T13:12:40;99283.78;;;18.24;45.93
19594;BME280;9944;48.240;16.478;2023-03-23T13:16:47;99284.28;;;18.32;45.15
19594;BME280;9944;48.240;16.478;2023-03-23T13:20:56;99284.84;;;18.41;45.17
19594;BME280;9944;48.240;16.478;2023-03-23T13:25:07;99272.00;;;18.49;44.36
19594;BME280;9944;48.240;16.478;2023-03-23T13:29:13;99266.59;;;18.50;44.19
19594;BME280;9944;48.240;16.478;2023-03-23T13:33:20;99260.88;;;18.58;44.36
19594;BME280;9944;48.240;16.478;2023-03-23T13:37:24;99263.25;;;18.66;44.12
19594;BME280;9944;48.240;16.478;2023-03-23T13:41:29;99256.28;;;18.62;44.16
19594;BME280;9944;48.240;16.478;2023-03-23T13:45:44;99252.00;;;18.58;44.13
19594;BME280;9944;48.240;16.478;2023-03-23T13:49:50;99253.66;;;18.60;44.68
19594;BME280;9944;48.240;16.478;2023-03-23T13:54:03;99251.53;;;18.68;44.57
19594;BME280;9944;48.240;16.478;2023-03-23T13:58:24;99244.03;;;18.77;42.61
19594;BME280;9944;48.240;16.478;2023-03-23T14:02:31;99241.88;;;18.85;43.06
19594;BME280;9944;48.240;16.478;2023-03-23T14:06:36;99243.31;;;18.92;42.75
19594;BME280;9944;48.240;16.478;2023-03-23T14:10:48;99239.28;;;19.02;41.96
19594;BME280;9944;48.240;16.478;2023-03-23T14:14:59;99235.38;;;19.10;41.36
19594;BME280;9944;48.240;16.478;2023-03-23T14:19:14;99242.44;;;19.11;41.24
19594;BME280;9944;48.240;16.478;2023-03-23T14:23:19;99240.41;;;19.16;41.47
19594;BME280;9944;48.240;16.478;2023-03-23T14:27:23;99236.66;;;19.20;41.16
19594;BME280;9944;48.240;16.478;2023-03-23T14:31:27;99248.00;;;19.25;41.39
19594;BME280;9944;48.240;16.478;2023-03-23T14:35:32;99237.94;;;19.30;40.86
19594;BME280;9944;48.240;16.478;2023-03-23T14:39:35;99247.63;;;19.33;40.64
19594;BME280;9944;48.240;16.478;2023-03-23T14:43:38;99245.09;;;19.30;39.80
19594;BME280;9944;48.240;16.478;2023-03-23T14:47:45;99238.09;;;19.27;39.61
19594;BME280;9944;48.240;16.478;2023-03-23T14:51:50;99237.22;;;19.27;40.27
19594;BME280;9944;48.240;16.478;2023-03-23T14:55:54;99238.94;;;19.28;39.75
19594;BME280;9944;48.240;16.478;2023-03-23T14:59:58;99231.69;;;19.30;40.12
19594;BME280;9944;48.240;16.478;2023-03-23T15:04:06;99230.00;;;19.29;39.75
19594;BME280;9944;48.240;16.478;2023-03-23T15:08:13;99226.41;;;19.28;40.46
19594;BME280;9944;48.240;16.478;2023-03-23T15:12:21;99225.50;;;19.29;39.48
19594;BME280;9944;48.240;16.478;2023-03-23T15:16:26;99218.38;;;19.28;40.26
19594;BME280;9944;48.240;16.478;2023-03-23T15:20:45;99222.03;;;19.27;39.82
19594;BME280;9944;48.240;16.478;2023-03-23T15:24:47;99227.38;;;19.27;40.48
19594;BME280;9944;48.240;16.478;2023-03-23T15:29:17;99227.38;;;19.27;39.78
19594;BME280;9944;48.240;16.478;2023-03-23T15:33:21;99222.09;;;19.25;40.11
19594;BME280;9944;48.240;16.478;2023-03-23T15:37:31;99227.53;;;19.24;40.08
19594;BME280;9944;48.240;16.478;2023-03-23T15:41:33;99221.47;;;19.20;40.15
19594;BME280;9944;48.240;16.478;2023-03-23T15:45:35;99223.34;;;19.18;40.27
19594;BME280;9944;48.240;16.478;2023-03-23T15:49:37;99220.75;;;19.17;40.38
19594;BME280;9944;48.240;16.478;2023-03-23T15:53:41;99221.53;;;19.19;40.74
19594;BME280;9944;48.240;16.478;2023-03-23T15:57:44;99216.97;;;19.21;41.02
19594;BME280;9944;48.240;16.478;2023-03-23T16:01:47;99215.06;;;19.23;40.43
19594;BME280;9944;48.240;16.478;2023-03-23T16:05:52;99209.72;;;19.23;40.92
19594;BME280;9944;48.240;16.478;2023-03-23T16:09:57;99208.00;;;19.22;41.08
19594;BME280;9944;48.240;16.478;2023-03-23T16:14:01;99218.00;;;19.18;41.12
19594;BME280;9944;48.240;16.478;2023-03-23T16:18:04;99223.50;;;19.15;41.02
19594;BME280;9944;48.240;16.478;2023-03-23T16:22:09;99219.31;;;19.10;41.14
19594;BME280;9944;48.240;16.478;2023-03-23T16:26:14;99217.88;;;19.02;41.14
19594;BME280;9944;48.240;16.478;2023-03-23T16:30:19;99224.44;;;18.95;41.37
19594;BME280;9944;48.240;16.478;2023-03-23T16:34:23;99220.31;;;18.88;41.68
19594;BME280;9944;48.240;16.478;2023-03-23T16:38:29;99227.84;;;18.80;41.97
19594;BME280;9944;48.240;16.478;2023-03-23T16:42:34;99226.47;;;18.71;42.25
19594;BME280;9944;48.240;16.478;2023-03-23T16:46:37;99233.91;;;18.64;42.47
19594;BME280;9944;48.240;16.478;2023-03-23T16:50:42;99231.53;;;18.57;42.71
19594;BME280;9944;48.240;16.478;2023-03-23T16:54:46;99238.97;;;18.50;42.91
19594;BME280;9944;48.240;16.478;2023-03-23T16:58:51;99239.25;;;18.44;43.24
19594;BME280;9944;48.240;16.478;2023-03-23T17:02:55;99244.06;;;18.36;43.64
19594;BME280;9944;48.240;16.478;2023-03-23T17:06:59;99248.03;;;18.27;43.60
19594;BME280;9944;48.240;16.478;2023-03-23T17:11:03;99247.44;;;18.20;43.86
19594;BME280;9944;48.240;16.478;2023-03-23T17:15:09;99248.50;;;18.16;43.92
19594;BME280;9944;48.240;16.478;2023-03-23T17:19:14;99268.28;;;18.12;44.13
19594;BME280;9944;48.240;16.478;2023-03-23T17:23:17;99260.53;;;18.06;44.63
19594;BME280;9944;48.240;16.478;2023-03-23T17:27:21;99259.19;;;17.96;44.95
19594;BME280;9944;48.240;16.478;2023-03-23T17:31:26;99258.63;;;17.87;44.70
19594;BME280;9944;48.240;16.478;2023-03-23T17:35:30;99270.47;;;17.82;44.83
19594;BME280;9944;48.240;16.478;2023-03-23T17:39:34;99257.28;;;17.77;45.23
19594;BME280;9944;48.240;16.478;2023-03-23T17:43:47;99263.72;;;17.71;45.41
19594;BME280;9944;48.240;16.478;2023-03-23T17:47:53;99263.09;;;17.65;45.13
19594;BME280;9944;48.240;16.478;2023-03-23T17:51:57;99266.91;;;17.59;45.48
19594;BME280;9944;48.240;16.478;2023-03-23T17:56:04;99269.91;;;17.51;45.45
19594;BME280;9944;48.240;16.478;2023-03-23T18:00:09;99267.47;;;17.45;45.79
19594;BME280;9944;48.240;16.478;2023-03-23T18:04:14;99274.78;;;17.40;45.83
19594;BME280;9944;48.240;16.478;2023-03-23T18:08:18;99281.25;;;17.34;45.83
19594;BME280;9944;48.240;16.478;2023-03-23T18:12:21;99282.28;;;17.30;46.12
19594;BME280;9944;48.240;16.478;2023-03-23T18:16:25;99286.75;;;17.30;46.43
19594;BME280;9944;48.240;16.478;2023-03-23T18:20:30;99282.50;;;17.26;46.38
19594;BME280;9944;48.240;16.478;2023-03-23T18:24:34;99278.28;;;17.20;46.67
19594;BME280;9944;48.240;16.478;2023-03-23T18:28:37;99285.59;;;17.15;46.82
19594;BME280;9944;48.240;16.478;2023-03-23T18:32:43;99300.84;;;17.11;46.82
19594;BME280;9944;48.240;16.478;2023-03-23T18:36:49;99301.06;;;17.05;47.06
19594;BME280;9944;48.240;16.478;2023-03-23T18:40:52;99304.78;;;17.01;47.26
19594;BME280;9944;48.240;16.478;2023-03-23T18:44:55;99312.09;;;16.96;47.33
19594;BME280;9944;48.240;16.478;2023-03-23T18:49:00;99306.88;;;16.93;47.50
19594;BME280;9944;48.240;16.478;2023-03-23T18:53:05;99315.09;;;16.87;47.54
19594;BME280;9944;48.240;16.478;2023-03-23T18:57:08;99310.03;;;16.79;47.58
19594;BME280;9944;48.240;16.478;2023-03-23T19:01:13;99316.47;;;16.73;47.69
19594;BME280;9944;48.240;16.478;2023-03-23T19:05:16;99320.13;;;16.69;47.98
19594;BME280;9944;48.240;16.478;2023-03-23T19:09:21;99316.78;;;16.64;48.28
19594;BME280;9944;48.240;16.478;2023-03-23T19:13:24;99317.88;;;16.58;47.98
19594;BME280;9944;48.240;16.478;2023-03-23T19:17:28;99311.88;;;16.52;48.49
19594;BME280;9944;48.240;16.478;2023-03-23T19:21:31;99316.50;;;16.47;48.64
19594;BME280;9944;48.240;16.478;2023-03-23T19:25:36;99314.94;;;16.41;48.66
19594;BME280;9944;48.240;16.478;2023-03-23T19:29:39;99312.56;;;16.33;48.99
19594;BME280;9944;48.240;16.478;2023-03-23T19:33:42;99319.84;;;16.28;49.06
19594;BME280;9944;48.240;16.478;2023-03-23T19:37:48;99313.06;;;16.19;49.20
19594;BME280;9944;48.240;16.478;2023-03-23T19:41:52;99325.75;;;16.11;49.27
19594;BME280;9944;48.240;16.478;2023-03-23T19:45:58;99328.56;;;16.06;49.63
19594;BME280;9944;48.240;16.478;2023-03-23T19:50:08;99328.84;;;15.99;49.64
19594;BME280;9944;48.240;16.478;2023-03-23T19:54:11;99340.53;;;15.93;49.99
19594;BME280;9944;48.240;16.478;2023-03-23T19:58:16;99327.56;;;15.82;50.22
19594;BME280;9944;48.240;16.478;2023-03-23T20:02:19;99332.19;;;15.76;50.40
19594;BME280;9944;48.240;16.478;2023-03-23T20:06:22;99325.47;;;15.65;50.30
19594;BME280;9944;48.240;16.478;2023-03-23T20:10:25;99328.22;;;15.62;50.45
19594;BME280;9944;48.240;16.478;2023-03-23T20:14:32;99319.47;;;15.59;50.30
19594;BME280;9944;48.240;16.478;2023-03-23T20:18:35;99316.84;;;15.57;50.45
19594;BME280;9944;48.240;16.478;2023-03-23T20:22:39;99314.22;;;15.56;50.45
19594;BME280;9944;48.240;16.478;2023-03-23T20:26:43;99318.56;;;15.58;50.17
19594;BME280;9944;48.240;16.478;2023-03-23T20:30:47;99330.09;;;15.59;50.83
19594;BME280;9944;48.240;16.478;2023-03-23T20:35:11;99340.97;;;15.51;51.93
19594;BME280;9944;48.240;16.478;2023-03-23T20:39:16;99339.44;;;15.44;52.39
19594;BME280;9944;48.240;16.478;2023-03-23T20:43:22;99340.63;;;15.34;52.61
19594;BME280;9944;48.240;16.478;2023-03-23T20:47:31;99351.34;;;15.30;52.48
19594;BME280;9944;48.240;16.478;2023-03-23T20:51:35;99366.53;;;15.27;52.59
19594;BME280;9944;48.240;16.478;2023-03-23T20:55:38;99367.44;;;15.27;52.74
19594;BME280;9944;48.240;16.478;2023-03-23T20:59:42;99355.91;;;15.27;53.02
19594;BME280;9944;48.240;16.478;2023-03-23T21:03:48;99351.56;;;15.24;53.07
19594;BME280;9944;48.240;16.478;2023-03-23T21:07:53;99346.31;;;15.21;53.20
19594;BME280;9944;48.240;16.478;2023-03-23T21:11:58;99346.38;;;15.20;53.04
19594;BME280;9944;48.240;16.478;2023-03-23T21:16:05;99343.75;;;15.18;53.29
19594;BME280;9944;48.240;16.478;2023-03-23T21:20:10;99351.72;;;15.18;53.28
19594;BME280;9944;48.240;16.478;2023-03-23T21:24:14;99351.84;;;15.15;53.32
19594;BME280;9944;48.240;16.478;2023-03-23T21:28:17;99345.94;;;15.04;53.49
19594;BME280;9944;48.240;16.478;2023-03-23T21:32:21;99355.94;;;14.96;54.02
19594;BME280;9944;48.240;16.478;2023-03-23T21:36:25;99349.06;;;14.88;54.12
19594;BME280;9944;48.240;16.478;2023-03-23T21:40:29;99343.00;;;14.82;54.22
19594;BME280;9944;48.240;16.478;2023-03-23T21:44:32;99339.75;;;14.72;54.38
19594;BME280;9944;48.240;16.478;2023-03-23T21:48:36;99354.16;;;14.63;54.03
19594;BME280;9944;48.240;16.478;2023-03-23T21:52:43;99351.63;;;14.59;54.07
19594;BME280;9944;48.240;16.478;2023-03-23T21:56:46;99348.22;;;14.53;54.73
19594;BME280;9944;48.240;16.478;2023-03-23T22:00:50;99345.66;;;14.50;55.46
19594;BME280;9944;48.240;16.478;2023-03-23T22:04:55;99354.50;;;14.51;55.46
19594;BME280;9944;48.240;16.478;2023-03-23T22:09:01;99340.50;;;14.44;55.59